Terminal Aerodrome Forecast
Issued by NWS Cleveland, OH

Home | Current Version | Previous Version | Text Only | Print | Product List | Glossary Off
Versions: 1 2 3 4 5 6 7 8 9 10 11 12 13 14 15 16 17 18 19 20 21 22

980
FTUS41 KCLE 301030 AAA
TAFMFD
TAF AMD
KMFD 301030Z 3011/0106 17010KT P6SM SCT035
     FM301300 17010KT P6SM VCSH BKN015
     FM302100 22012KT 6SM -SHRA SCT015 OVC025
      TEMPO 3021/3023 5SM -RA OVC015
     FM010000 24012KT P6SM BKN025=

USA.gov is the U.S. government's official web portal to all federal, state and local government web resources and services.